createdAt,value
2023-04-10T00:01:42.044Z,4.20
2023-04-10T00:04:10.085Z,5.40
2023-04-10T00:06:37.586Z,4.90
2023-04-10T00:09:04.879Z,5.30
2023-04-10T00:11:32.212Z,4.80
2023-04-10T00:13:59.565Z,4.70
2023-04-10T00:16:27.186Z,5.10
2023-04-10T00:18:54.591Z,4.50
2023-04-10T00:21:22.341Z,4.90
2023-04-10T00:23:49.706Z,4.70
2023-04-10T00:26:17.241Z,5.00
2023-04-10T00:28:44.745Z,5.00
2023-04-10T00:31:12.132Z,4.40
2023-04-10T00:33:39.564Z,4.70
2023-04-10T00:36:07.408Z,4.80
2023-04-10T00:38:35.417Z,4.20
2023-04-10T00:41:02.879Z,4.30
2023-04-10T00:43:31.469Z,5.00
2023-04-10T00:45:59.252Z,3.90
2023-04-10T00:48:27.229Z,4.50
2023-04-10T00:50:54.892Z,3.70
2023-04-10T00:53:22.272Z,3.90
2023-04-10T00:55:51.880Z,3.60
2023-04-10T00:58:20.390Z,3.60
2023-04-10T01:00:48.534Z,3.60
2023-04-10T01:03:18.454Z,3.90
2023-04-10T01:05:58.232Z,2.80
2023-04-10T01:08:36.627Z,3.10
2023-04-10T01:11:30.851Z,2.50
2023-04-10T01:14:35.330Z,2.00
2023-04-10T01:17:11.973Z,2.10
2023-04-10T01:20:10.411Z,2.60
2023-04-10T01:23:19.272Z,2.30
2023-04-10T01:26:05.171Z,2.40
2023-04-10T01:28:54.653Z,2.20
2023-04-10T01:31:32.323Z,3.00
2023-04-10T01:34:11.829Z,2.80
2023-04-10T01:36:52.242Z,2.60
2023-04-10T01:39:21.376Z,2.80
2023-04-10T01:41:52.922Z,3.50
2023-04-10T01:44:27.476Z,3.70
2023-04-10T01:46:56.582Z,3.60
2023-04-10T01:49:27.403Z,4.10
2023-04-10T01:52:00.012Z,3.50
2023-04-10T01:54:28.958Z,2.40
2023-04-10T01:56:57.210Z,3.60
2023-04-10T01:59:24.711Z,3.70
2023-04-10T02:01:59.141Z,3.90
2023-04-10T02:04:27.834Z,2.20
2023-04-10T02:06:55.659Z,2.80
2023-04-10T02:09:31.485Z,3.70
2023-04-10T02:12:09.480Z,3.00
2023-04-10T02:14:40.099Z,1.90
2023-04-10T02:17:09.807Z,2.30
2023-04-10T02:19:38.823Z,3.30
2023-04-10T02:22:06.848Z,2.10
2023-04-10T02:24:35.947Z,2.40
2023-04-10T02:27:03.708Z,2.70
2023-04-10T02:29:31.165Z,1.60
2023-04-10T02:31:58.529Z,2.30
2023-04-10T02:34:26.167Z,2.30
2023-04-10T02:36:54.113Z,1.60
2023-04-10T02:39:21.578Z,1.60
2023-04-10T02:41:49.098Z,2.40
2023-04-10T02:44:16.559Z,2.50
2023-04-10T02:46:43.941Z,2.70
2023-04-10T02:49:11.309Z,3.50
2023-04-10T02:51:38.596Z,2.30
2023-04-10T02:54:06.023Z,3.20
2023-04-10T02:56:36.461Z,3.20
2023-04-10T02:59:03.849Z,2.00
2023-04-10T03:01:32.221Z,3.40
2023-04-10T03:03:59.998Z,2.80
2023-04-10T03:06:27.581Z,2.30
2023-04-10T03:08:55.084Z,2.70
2023-04-10T03:11:22.554Z,2.70
2023-04-10T03:13:50.204Z,2.50
2023-04-10T03:16:20.970Z,2.30
2023-04-10T03:18:48.338Z,3.50
2023-04-10T03:21:16.301Z,1.10
2023-04-10T03:23:43.717Z,3.30
2023-04-10T03:26:12.019Z,3.80
2023-04-10T03:28:39.929Z,3.20
2023-04-10T03:31:07.490Z,1.10
2023-04-10T03:33:34.972Z,1.00
2023-04-10T03:36:04.858Z,2.70
2023-04-10T03:38:32.238Z,1.10
2023-04-10T03:40:59.565Z,1.00
2023-04-10T03:43:26.980Z,1.20
2023-04-10T03:45:54.344Z,3.60
2023-04-10T03:48:21.700Z,2.70
2023-04-10T03:50:49.084Z,2.30
2023-04-10T03:53:17.248Z,3.60
2023-04-10T03:55:45.077Z,0.80
2023-04-10T03:58:13.275Z,2.00
2023-04-10T04:00:40.922Z,3.00
2023-04-10T04:03:08.496Z,2.40
2023-04-10T04:05:36.298Z,0.90
2023-04-10T04:08:06.964Z,1.90
2023-04-10T04:10:34.503Z,2.50
2023-04-10T04:13:01.987Z,1.00
2023-04-10T04:15:29.466Z,2.20
2023-04-10T04:17:57.903Z,1.80
2023-04-10T04:20:25.608Z,2.30
2023-04-10T04:22:53.596Z,1.70
2023-04-10T04:25:20.949Z,3.00
2023-04-10T04:27:48.251Z,2.10
2023-04-10T04:30:15.579Z,2.70
2023-04-10T04:32:42.900Z,2.10
2023-04-10T04:35:10.923Z,2.40
2023-04-10T04:37:38.379Z,2.20
2023-04-10T04:40:06.394Z,1.40
2023-04-10T04:42:33.706Z,1.50
2023-04-10T04:45:01.486Z,2.80
2023-04-10T04:47:28.847Z,1.80
2023-04-10T04:49:56.262Z,2.30
2023-04-10T04:52:23.940Z,3.10
2023-04-10T04:54:51.304Z,3.10
2023-04-10T04:57:18.647Z,2.70
2023-04-10T04:59:45.933Z,2.60
2023-04-10T05:02:13.293Z,2.30
2023-04-10T05:04:40.902Z,4.30
2023-04-10T05:07:08.241Z,3.40
2023-04-10T05:09:35.533Z,4.10
2023-04-10T05:12:03.995Z,3.20
2023-04-10T05:14:31.875Z,3.20
2023-04-10T05:17:01.109Z,2.10
2023-04-10T05:19:30.401Z,2.30
2023-04-10T05:21:57.725Z,3.70
2023-04-10T05:24:25.533Z,3.30
2023-04-10T05:26:53.031Z,2.80
2023-04-10T05:29:20.440Z,3.00
2023-04-10T05:31:48.746Z,2.70
2023-04-10T05:34:16.458Z,2.70
2023-04-10T05:36:44.001Z,3.80
2023-04-10T05:39:11.324Z,3.90
2023-04-10T05:41:38.652Z,3.20
2023-04-10T05:44:06.037Z,3.40
2023-04-10T05:46:33.480Z,3.60
2023-04-10T05:49:00.936Z,3.60
2023-04-10T05:51:28.885Z,3.80
2023-04-10T05:53:56.327Z,4.80
2023-04-10T05:56:23.856Z,4.50
2023-04-10T05:58:51.236Z,4.60
2023-04-10T06:01:18.752Z,3.90
2023-04-10T06:03:46.519Z,4.70
2023-04-10T06:06:14.343Z,5.30
2023-04-10T06:08:41.727Z,3.90
2023-04-10T06:11:09.292Z,5.20
2023-04-10T06:13:36.821Z,4.70
2023-04-10T06:16:04.756Z,5.00
2023-04-10T06:18:32.486Z,4.50
2023-04-10T06:21:02.238Z,5.40
2023-04-10T06:23:29.756Z,5.30
2023-04-10T06:25:57.272Z,5.50
2023-04-10T06:28:24.755Z,5.40
2023-04-10T06:30:52.363Z,5.50
2023-04-10T06:33:19.734Z,5.50
2023-04-10T06:35:47.098Z,5.70
2023-04-10T06:38:14.478Z,5.40
2023-04-10T06:40:42.070Z,5.90
2023-04-10T06:43:09.384Z,5.60
2023-04-10T06:45:36.720Z,6.20
2023-04-10T06:48:04.890Z,6.20
2023-04-10T06:50:33.442Z,6.60
2023-04-10T06:53:01.327Z,6.20
2023-04-10T06:55:30.055Z,6.30
2023-04-10T06:57:57.553Z,6.30
2023-04-10T07:00:25.762Z,6.40
2023-04-10T07:02:53.159Z,6.50
2023-04-10T07:05:21.111Z,6.60
2023-04-10T07:07:50.669Z,6.80
2023-04-10T07:10:18.033Z,6.80
2023-04-10T07:12:45.665Z,6.90
2023-04-10T07:15:12.984Z,7.10
2023-04-10T07:17:40.498Z,7.30
2023-04-10T07:20:08.332Z,7.50
2023-04-10T07:22:35.886Z,7.60
2023-04-10T07:25:03.466Z,8.30
2023-04-10T07:27:30.942Z,8.10
2023-04-10T07:29:58.243Z,8.30
2023-04-10T07:32:25.836Z,8.40
2023-04-10T07:34:53.411Z,8.50
2023-04-10T07:37:21.137Z,8.60
2023-04-10T07:39:48.484Z,8.90
2023-04-10T07:42:15.984Z,9.00
2023-04-10T07:44:43.442Z,9.20
2023-04-10T07:47:11.508Z,9.40
2023-04-10T07:49:38.947Z,9.60
2023-04-10T07:52:06.398Z,9.60
2023-04-10T07:54:34.430Z,9.90
2023-04-10T07:57:01.852Z,10.00
2023-04-10T07:59:29.411Z,10.00
2023-04-10T08:01:57.335Z,10.10
2023-04-10T08:04:25.212Z,10.20
2023-04-10T08:06:52.816Z,10.20
2023-04-10T08:09:20.336Z,10.80
2023-04-10T08:11:47.961Z,10.30
2023-04-10T08:14:18.507Z,10.30
2023-04-10T08:16:46.029Z,10.10
2023-04-10T08:19:13.526Z,10.30
2023-04-10T08:21:41.052Z,10.40
2023-04-10T08:24:08.519Z,10.90
2023-04-10T08:26:36.276Z,10.40
2023-04-10T08:29:03.685Z,10.40
2023-04-10T08:31:32.338Z,10.60
2023-04-10T08:34:00.298Z,10.50
2023-04-10T08:36:28.588Z,10.60
2023-04-10T08:38:56.052Z,10.70
2023-04-10T08:41:23.403Z,10.80
2023-04-10T08:43:51.412Z,10.90
2023-04-10T08:46:18.949Z,10.90
2023-04-10T08:48:59.046Z,11.00
2023-04-10T08:51:32.518Z,11.10
2023-04-10T08:54:08.226Z,11.10
2023-04-10T08:56:37.870Z,11.20
2023-04-10T08:59:05.877Z,11.30
2023-04-10T09:01:34.981Z,11.30
2023-04-10T09:04:02.782Z,11.40
2023-04-10T09:06:31.596Z,11.50
2023-04-10T09:11:56.924Z,11.80
2023-04-10T09:14:35.198Z,11.50
2023-04-10T09:17:24.652Z,11.40
2023-04-10T09:19:56.311Z,11.50
2023-04-10T09:22:32.490Z,11.40
2023-04-10T09:25:00.999Z,11.60
2023-04-10T09:27:35.253Z,11.80
2023-04-10T09:30:03.859Z,11.70
2023-04-10T09:32:45.450Z,11.80
2023-04-10T09:35:14.819Z,12.10
2023-04-10T09:37:47.121Z,11.90
2023-04-10T09:40:25.510Z,11.90
2023-04-10T09:42:56.208Z,11.90
2023-04-10T09:45:23.609Z,11.90
2023-04-10T09:48:05.369Z,12.10
2023-04-10T09:50:40.275Z,12.20
2023-04-10T09:53:13.452Z,12.70
2023-04-10T09:55:42.417Z,12.30
2023-04-10T09:58:10.705Z,12.30
2023-04-10T10:00:43.117Z,12.40
2023-04-10T10:03:13.546Z,12.50
2023-04-10T10:05:43.851Z,12.60
2023-04-10T10:08:12.852Z,12.60
2023-04-10T10:13:44.606Z,13.80
2023-04-10T10:21:24.508Z,15.30
2023-04-10T10:26:23.835Z,16.10
2023-04-10T10:28:55.864Z,15.60
2023-04-10T10:31:24.603Z,16.90
2023-04-10T10:33:53.192Z,16.50
2023-04-10T10:36:21.816Z,16.60
2023-04-10T10:44:14.825Z,17.20
2023-04-10T10:46:59.524Z,17.20
2023-04-10T10:49:55.648Z,17.30
2023-04-10T10:52:38.668Z,17.40
2023-04-10T10:55:24.782Z,17.30
2023-04-10T10:57:54.058Z,17.30
2023-04-10T11:00:26.691Z,17.60
2023-04-10T11:03:09.490Z,17.80
2023-04-10T11:05:58.911Z,17.40
2023-04-10T11:08:43.376Z,17.40
2023-04-10T11:11:16.268Z,17.40
2023-04-10T11:14:06.546Z,17.30
2023-04-10T11:16:36.113Z,17.50
2023-04-10T11:19:14.329Z,18.00
2023-04-10T11:22:08.365Z,17.20
2023-04-10T11:24:59.469Z,17.20
2023-04-10T11:27:43.157Z,17.10
2023-04-10T11:30:30.093Z,16.90
2023-04-10T11:32:58.423Z,16.60
2023-04-10T11:35:27.830Z,16.80
2023-04-10T11:38:16.841Z,16.80
2023-04-10T11:40:58.692Z,16.90
2023-04-10T11:43:26.743Z,16.90
2023-04-10T11:46:04.684Z,16.80
2023-04-10T11:48:32.664Z,16.60
2023-04-10T11:51:06.788Z,16.60
2023-04-10T11:53:34.390Z,16.60
2023-04-10T11:56:01.927Z,16.60
2023-04-10T11:58:30.905Z,16.20
2023-04-10T12:01:03.730Z,16.60
2023-04-10T12:03:42.267Z,16.40
2023-04-10T12:06:14.652Z,16.40
2023-04-10T12:08:46.448Z,16.40
2023-04-10T12:11:14.559Z,16.40
2023-04-10T12:13:41.913Z,16.70
2023-04-10T12:16:10.870Z,16.50
2023-04-10T12:18:38.945Z,16.50
2023-04-10T12:21:08.505Z,16.70
2023-04-10T12:23:39.181Z,16.60
2023-04-10T12:26:10.978Z,16.60
2023-04-10T12:28:39.775Z,16.70
2023-04-10T12:31:07.786Z,16.40
2023-04-10T12:33:35.378Z,16.60
2023-04-10T12:36:03.012Z,16.50
2023-04-10T12:38:44.088Z,16.00
2023-04-10T12:41:12.462Z,15.80
2023-04-10T12:43:44.943Z,15.60
2023-04-10T12:46:26.372Z,15.30
2023-04-10T12:48:55.336Z,15.30
2023-04-10T12:51:42.313Z,15.10
2023-04-10T12:54:09.934Z,15.00
2023-04-10T12:56:44.648Z,14.80
2023-04-10T12:59:12.747Z,14.50
2023-04-10T13:01:40.603Z,14.20
2023-04-10T13:04:08.305Z,13.30
2023-04-10T13:06:44.325Z,13.50
2023-04-10T13:09:13.710Z,13.30
2023-04-10T13:11:42.127Z,12.90
2023-04-10T13:14:09.771Z,12.70
2023-04-10T13:16:38.186Z,12.50
2023-04-10T13:19:05.795Z,12.40
2023-04-10T13:21:33.206Z,12.30
2023-04-10T13:24:00.709Z,12.20
2023-04-10T13:26:28.247Z,12.10
2023-04-10T13:28:56.035Z,12.00
2023-04-10T13:31:23.926Z,11.90
2023-04-10T13:33:51.424Z,12.40
2023-04-10T13:36:18.987Z,11.80
2023-04-10T13:38:46.524Z,11.70
2023-04-10T13:41:13.804Z,11.60
2023-04-10T13:43:41.093Z,11.40
2023-04-10T13:46:08.563Z,11.30
2023-04-10T13:48:41.426Z,11.30
2023-04-10T13:51:09.422Z,11.20
2023-04-10T13:53:36.763Z,11.20
2023-04-10T13:56:04.335Z,11.10
2023-04-10T13:58:34.506Z,11.10
2023-04-10T14:01:02.316Z,11.10
2023-04-10T14:03:29.774Z,11.10
2023-04-10T14:05:57.256Z,11.00
2023-04-10T14:08:24.666Z,11.00
2023-04-10T14:10:52.012Z,11.10
2023-04-10T14:13:19.505Z,10.60
2023-04-10T14:15:47.168Z,11.20
2023-04-10T14:18:17.687Z,11.80
2023-04-10T14:20:45.022Z,11.20
2023-04-10T14:23:18.560Z,11.10
2023-04-10T14:25:46.573Z,11.10
2023-04-10T14:28:17.971Z,11.10
2023-04-10T14:30:50.929Z,11.00
2023-04-10T14:33:20.174Z,11.00
2023-04-10T14:35:48.373Z,11.00
2023-04-10T14:38:16.131Z,11.00
2023-04-10T14:40:45.833Z,10.80
2023-04-10T14:43:13.271Z,10.90
2023-04-10T14:45:40.641Z,10.90
2023-04-10T14:48:08.140Z,10.90
2023-04-10T14:50:35.665Z,10.90
2023-04-10T14:53:03.114Z,10.90
2023-04-10T14:55:30.643Z,10.80
2023-04-10T14:57:58.896Z,10.80
2023-04-10T15:00:27.004Z,10.80
2023-04-10T15:02:54.712Z,10.80
2023-04-10T15:05:23.228Z,10.40
2023-04-10T15:07:50.676Z,10.70
2023-04-10T15:10:18.316Z,10.70
2023-04-10T15:12:45.822Z,10.70
2023-04-10T15:15:13.303Z,10.50
2023-04-10T15:17:43.820Z,10.60
2023-04-10T15:20:11.825Z,10.30
2023-04-10T15:22:40.486Z,10.60
2023-04-10T15:25:09.765Z,10.30
2023-04-10T15:27:37.250Z,10.30
2023-04-10T15:30:05.735Z,10.40
2023-04-10T15:32:33.413Z,10.50
2023-04-10T15:35:00.848Z,10.30
2023-04-10T15:37:28.575Z,10.40
2023-04-10T15:39:55.974Z,10.40
2023-04-10T15:42:23.452Z,10.40
2023-04-10T15:44:50.929Z,10.30
2023-04-10T15:47:18.292Z,10.40
2023-04-10T15:49:45.757Z,10.30
2023-04-10T15:52:13.082Z,10.30
2023-04-10T15:54:40.826Z,10.30
2023-04-10T15:57:08.327Z,10.10
2023-04-10T15:59:36.800Z,10.30
2023-04-10T16:02:04.353Z,10.00
2023-04-10T16:04:32.145Z,10.00
2023-04-10T16:06:59.751Z,10.00
2023-04-10T16:09:27.443Z,9.50
2023-04-10T16:11:56.322Z,9.80
2023-04-10T16:14:23.802Z,9.90
2023-04-10T16:16:51.946Z,9.80
2023-04-10T16:19:19.680Z,9.90
2023-04-10T16:21:47.036Z,9.80
2023-04-10T16:24:14.503Z,9.80
2023-04-10T16:26:41.753Z,9.90
2023-04-10T16:29:09.264Z,9.70
2023-04-10T16:31:37.101Z,9.80
2023-04-10T16:34:04.699Z,9.60
2023-04-10T16:36:32.371Z,9.70
2023-04-10T16:38:59.746Z,9.60
2023-04-10T16:41:27.105Z,9.60
2023-04-10T16:43:54.625Z,9.50
2023-04-10T16:46:22.290Z,9.50
2023-04-10T16:48:49.759Z,9.50
2023-04-10T16:51:18.514Z,9.50
2023-04-10T16:53:45.854Z,9.50
2023-04-10T16:56:13.185Z,9.50
2023-04-10T16:58:42.149Z,9.50
2023-04-10T17:01:25.412Z,9.50
2023-04-10T17:03:53.613Z,9.50
2023-04-10T17:06:21.275Z,9.50
2023-04-10T17:08:48.750Z,9.40
2023-04-10T17:11:16.600Z,9.40
2023-04-10T17:13:46.177Z,9.00
2023-04-10T17:16:14.386Z,9.40
2023-04-10T17:18:42.476Z,9.40
2023-04-10T17:21:13.553Z,9.40
2023-04-10T17:23:41.844Z,9.30
2023-04-10T17:26:14.100Z,9.30
2023-04-10T17:28:45.096Z,9.30
2023-04-10T17:31:13.836Z,9.20
2023-04-10T17:33:44.323Z,9.50
2023-04-10T17:36:12.890Z,9.20
2023-04-10T17:38:41.477Z,9.10
2023-04-10T17:41:10.253Z,9.10
2023-04-10T17:43:37.850Z,9.00
2023-04-10T17:46:05.553Z,9.00
2023-04-10T17:48:34.415Z,9.00
2023-04-10T17:51:08.570Z,8.90
2023-04-10T17:53:36.303Z,8.90
2023-04-10T17:56:04.762Z,8.90
2023-04-10T17:58:32.111Z,8.70
2023-04-10T18:00:59.480Z,8.70
2023-04-10T18:03:27.045Z,8.60
2023-04-10T18:05:54.611Z,8.60
2023-04-10T18:08:22.079Z,8.50
2023-04-10T18:10:49.671Z,8.30
2023-04-10T18:13:17.067Z,7.80
2023-04-10T18:15:44.467Z,8.30
2023-04-10T18:18:12.152Z,8.60
2023-04-10T18:20:39.534Z,8.20
2023-04-10T18:23:07.111Z,8.30
2023-04-10T18:25:34.745Z,8.20
2023-04-10T18:28:13.179Z,8.10
2023-04-10T18:30:41.591Z,8.40
2023-04-10T18:33:11.072Z,8.00
2023-04-10T18:35:39.089Z,7.80
2023-04-10T18:38:07.190Z,7.60
2023-04-10T18:40:36.950Z,7.50
2023-04-10T18:43:04.393Z,7.50
2023-04-10T18:45:34.414Z,7.90
2023-04-10T18:48:02.278Z,7.50
2023-04-10T18:50:30.681Z,7.50
2023-04-10T18:52:58.098Z,7.40
2023-04-10T18:55:25.587Z,7.40
2023-04-10T18:57:53.055Z,7.30
2023-04-10T19:00:20.703Z,7.30
2023-04-10T19:02:51.206Z,7.10
2023-04-10T19:05:18.670Z,7.10
2023-04-10T19:07:56.707Z,7.10
2023-04-10T19:10:30.864Z,7.00
2023-04-10T19:12:58.162Z,7.00
2023-04-10T19:15:25.694Z,7.00
2023-04-10T19:17:54.573Z,7.50
2023-04-10T19:20:50.441Z,6.60
2023-04-10T19:23:09.826Z,6.50
2023-04-10T19:25:37.226Z,6.80
2023-04-10T19:28:04.900Z,7.00
2023-04-10T19:30:32.308Z,6.20
2023-04-10T19:32:59.810Z,6.90
2023-04-10T19:35:27.438Z,6.80
2023-04-10T19:37:58.391Z,6.70
2023-04-10T19:40:25.931Z,6.70
2023-04-10T19:42:53.587Z,6.60
2023-04-10T19:45:22.555Z,6.70
2023-04-10T19:47:53.562Z,6.50
2023-04-10T19:50:21.264Z,6.40
2023-04-10T19:52:48.902Z,6.40
2023-04-10T19:55:18.813Z,6.30
2023-04-10T19:57:49.369Z,5.80
2023-04-10T20:00:16.982Z,6.10
2023-04-10T20:02:44.567Z,5.70
2023-04-10T20:05:12.389Z,5.90
2023-04-10T20:07:40.014Z,5.70
2023-04-10T20:10:08.180Z,5.70
2023-04-10T20:12:35.879Z,5.60
2023-04-10T20:15:04.413Z,5.60
2023-04-10T20:17:32.145Z,5.40
2023-04-10T20:19:59.594Z,5.30
2023-04-10T20:22:27.199Z,5.30
2023-04-10T20:24:54.702Z,5.40
2023-04-10T20:27:22.128Z,5.40
2023-04-10T20:29:50.478Z,5.40
2023-04-10T20:32:18.104Z,5.40
2023-04-10T20:34:45.784Z,5.40
2023-04-10T20:37:17.307Z,5.20
2023-04-10T20:39:45.036Z,4.90
2023-04-10T20:42:12.540Z,5.10
2023-04-10T20:44:39.993Z,4.90
2023-04-10T20:47:07.469Z,5.00
2023-04-10T20:49:37.619Z,5.20
2023-04-10T20:52:07.269Z,5.00
2023-04-10T20:54:35.039Z,4.90
2023-04-10T20:57:02.430Z,5.50
2023-04-10T20:59:29.970Z,5.20
2023-04-10T21:01:58.533Z,5.50
2023-04-10T21:04:26.291Z,4.60
2023-04-10T21:06:53.754Z,4.60
2023-04-10T21:09:21.271Z,4.60
2023-04-10T21:11:48.563Z,4.60
2023-04-10T21:14:15.914Z,4.90
2023-04-10T21:16:43.873Z,4.60
2023-04-10T21:19:11.796Z,4.60
2023-04-10T21:21:39.294Z,4.50
2023-04-10T21:24:06.642Z,4.90
2023-04-10T21:26:34.107Z,4.50
2023-04-10T21:29:01.618Z,4.30
2023-04-10T21:31:29.109Z,4.30
2023-04-10T21:33:56.524Z,4.20
2023-04-10T21:36:23.865Z,4.10
2023-04-10T21:38:51.205Z,4.00
2023-04-10T21:41:18.631Z,4.10
2023-04-10T21:43:46.115Z,4.10
2023-04-10T21:46:13.654Z,4.50
2023-04-10T21:48:41.817Z,4.20
2023-04-10T21:51:09.288Z,3.50
2023-04-10T21:53:36.797Z,4.00
2023-04-10T21:56:04.383Z,3.60
2023-04-10T21:58:32.504Z,4.10
2023-04-10T22:01:01.042Z,4.00
2023-04-10T22:03:28.721Z,4.00
2023-04-10T22:05:57.305Z,3.90
2023-04-10T22:08:24.695Z,4.20
2023-04-10T22:10:52.447Z,3.90
2023-04-10T22:13:30.263Z,4.10
2023-04-10T22:16:00.092Z,3.70
2023-04-10T22:18:27.931Z,3.60
2023-04-10T22:20:55.672Z,3.60
2023-04-10T22:23:24.442Z,3.90
2023-04-10T22:25:51.923Z,3.60
2023-04-10T22:28:19.322Z,3.80
2023-04-10T22:30:46.812Z,3.40
2023-04-10T22:33:14.253Z,3.70
2023-04-10T22:35:41.607Z,3.30
2023-04-10T22:38:09.292Z,3.30
2023-04-10T22:40:36.779Z,3.20
2023-04-10T22:43:04.114Z,3.30
2023-04-10T22:45:31.428Z,3.50
2023-04-10T22:47:58.921Z,3.70
2023-04-10T22:50:26.412Z,3.50
2023-04-10T22:52:53.932Z,3.00
2023-04-10T22:55:21.304Z,3.50
2023-04-10T22:57:49.628Z,2.70
2023-04-10T23:00:17.247Z,4.20
2023-04-10T23:02:44.745Z,2.70
2023-04-10T23:05:12.161Z,4.00
2023-04-10T23:07:39.594Z,3.90
2023-04-10T23:10:08.395Z,3.70
2023-04-10T23:12:36.049Z,3.00
2023-04-10T23:15:06.050Z,4.40
2023-04-10T23:17:33.750Z,3.10
2023-04-10T23:20:01.296Z,3.50
2023-04-10T23:22:29.994Z,3.10
2023-04-10T23:24:57.964Z,2.90
2023-04-10T23:27:25.353Z,2.80
2023-04-10T23:29:52.742Z,2.50
2023-04-10T23:32:20.112Z,3.40
2023-04-10T23:34:47.470Z,2.80
2023-04-10T23:37:14.938Z,1.90
2023-04-10T23:39:42.330Z,3.10
2023-04-10T23:42:09.751Z,1.80
2023-04-10T23:44:37.204Z,3.10
2023-04-10T23:47:04.629Z,2.10
2023-04-10T23:49:32.362Z,2.00
2023-04-10T23:51:59.660Z,3.00
2023-04-10T23:54:27.286Z,3.60
2023-04-10T23:56:54.691Z,2.10
2023-04-10T23:59:21.985Z,4.20
